Time;durP1;ratioP1;P1;durP2;ratioP2;P2;SDS_P1;SDS_P2;PMS_P1;PMS_P2;Temp;Humidity;BMP_temperature;BMP_pressure;BME280_temperature;BME280_humidity;BME280_pressure;Samples;Min_cycle;Max_cycle;Signal;HPM_P1;HPM_P2
2021/09/17 00:01:14;;;;;;;;;12.75;9.75;;;;;;;;5097729;27;45529;-82
2021/09/17 00:03:39;;;;;;;;;13.25;11.50;;;;;;;;5093058;27;45474;-82
2021/09/17 00:06:05;;;;;;;;;10.67;10.00;;;;;;;;5094352;27;47916;-82
2021/09/17 00:08:30;;;;;;;;;11.25;10.75;;;;;;;;5093846;27;45653;-82
2021/09/17 00:10:55;;;;;;;;;11.75;9.00;;;;;;;;5097040;27;45466;-82
2021/09/17 00:13:21;;;;;;;;;12.75;9.25;;;;;;;;5099329;27;45368;-82
2021/09/17 00:15:46;;;;;;;;;10.75;10.25;;;;;;;;5093087;27;45933;-82
2021/09/17 00:18:12;;;;;;;;;9.50;9.50;;;;;;;;5089698;27;45554;-82
2021/09/17 00:20:37;;;;;;;;;12.25;8.00;;;;;;;;5094835;27;45624;-82
2021/09/17 00:23:02;;;;;;;;;9.67;8.67;;;;;;;;5091474;27;48942;-82
2021/09/17 00:25:27;;;;;;;;;11.50;9.00;;;;;;;;5095624;27;45679;-82
2021/09/17 00:27:53;;;;;;;;;10.00;8.00;;;;;;;;5093847;27;45535;-82
2021/09/17 00:30:18;;;;;;;;;8.75;8.75;;;;;;;;5091901;27;45649;-82
2021/09/17 00:32:44;;;;;;;;;10.25;6.75;;;;;;;;5095647;27;45463;-82
2021/09/17 00:35:09;;;;;;;;;8.50;7.00;;;;;;;;5094601;27;46065;-82
2021/09/17 00:37:34;;;;;;;;;10.00;8.25;;;;;;;;5096725;27;46227;-81
2021/09/17 00:40:00;;;;;;;;;8.00;6.33;;;;;;;;5097017;27;45499;-82
2021/09/17 00:42:25;;;;;;;;;8.00;7.00;;;;;;;;5096902;27;45770;-81
2021/09/17 00:44:50;;;;;;;;;6.67;6.33;;;;;;;;5096867;27;46530;-82
2021/09/17 00:47:15;;;;;;;;;6.67;6.67;;;;;;;;5095790;27;45519;-81
2021/09/17 00:49:41;;;;;;;;;8.00;8.00;;;;;;;;5093792;27;45507;-81
2021/09/17 00:52:06;;;;;;;;;6.50;6.50;;;;;;;;5095244;27;45496;-82
2021/09/17 00:54:34;;;;;;;;;7.75;6.50;;;;;;;;5097115;27;45453;-82
2021/09/17 00:56:59;;;;;;;;;11.00;7.00;;;;;;;;5092439;27;46230;-81
2021/09/17 00:59:24;;;;;;;;;6.00;5.75;;;;;;;;5093998;27;45545;-82
2021/09/17 01:01:50;;;;;;;;;7.67;7.00;;;;;;;;5092512;27;45465;-82
2021/09/17 01:04:15;;;;;;;;;7.50;7.50;;;;;;;;5093688;27;45956;-81
2021/09/17 01:06:43;;;;;;;;;7.00;6.00;;;;;;;;5092586;27;45534;-81
2021/09/17 01:09:08;;;;;;;;;9.00;8.00;;;;;;;;5096895;27;45875;-81
2021/09/17 01:11:33;;;;;;;;;9.00;6.25;;;;;;;;5094425;27;45473;-81
2021/09/17 01:14:00;;;;;;;;;7.00;6.00;;;;;;;;5098673;27;45553;-82
2021/09/17 01:16:26;;;;;;;;;7.50;5.25;;;;;;;;5097653;27;45731;-82
2021/09/17 01:18:51;;;;;;;;;8.00;7.00;;;;;;;;5100828;27;45576;-81
2021/09/17 01:21:17;;;;;;;;;5.25;5.25;;;;;;;;5095483;27;45828;-82
2021/09/17 01:23:42;;;;;;;;;6.00;6.00;;;;;;;;5106752;27;46262;-82
2021/09/17 01:26:07;;;;;;;;;10.33;7.33;;;;;;;;5097938;27;45422;-81
2021/09/17 01:28:33;;;;;;;;;7.00;7.00;;;;;;;;5093952;27;45625;-81
2021/09/17 01:30:58;;;;;;;;;7.25;6.50;;;;;;;;5100873;27;45544;-82
2021/09/17 01:33:24;;;;;;;;;7.25;6.75;;;;;;;;5092750;27;46362;-81
2021/09/17 01:36:01;;;;;;;;;7.00;7.00;;;;;;;;5098811;27;45586;-81
2021/09/17 01:38:28;;;;;;;;;7.25;6.25;;;;;;;;5096037;27;45679;-81
2021/09/17 01:40:53;;;;;;;;;8.25;7.00;;;;;;;;5098418;27;45594;-81
2021/09/17 01:43:19;;;;;;;;;9.50;7.50;;;;;;;;5097144;27;45753;-81
2021/09/17 01:45:44;;;;;;;;;6.25;6.25;;;;;;;;5096295;27;45445;-82
2021/09/17 01:48:09;;;;;;;;;12.00;9.00;;;;;;;;5092358;27;45350;-81
2021/09/17 01:50:34;;;;;;;;;9.00;7.00;;;;;;;;5093869;27;45478;-81
2021/09/17 01:53:00;;;;;;;;;8.50;8.00;;;;;;;;5091221;27;47418;-82
2021/09/17 01:55:25;;;;;;;;;7.33;7.33;;;;;;;;5094597;27;45996;-81
2021/09/17 01:57:51;;;;;;;;;9.67;7.67;;;;;;;;5098171;27;45540;-81
2021/09/17 02:00:17;;;;;;;;;9.00;7.00;;;;;;;;5089719;27;45513;-81
2021/09/17 02:02:42;;;;;;;;;11.00;10.25;;;;;;;;5106744;27;46744;-81
2021/09/17 02:05:08;;;;;;;;;15.67;11.00;;;;;;;;5099710;27;45728;-82
2021/09/17 02:07:33;;;;;;;;;14.50;13.50;;;;;;;;5095412;27;45741;-82
2021/09/17 02:09:59;;;;;;;;;22.00;15.33;;;;;;;;5099541;27;45457;-82
2021/09/17 02:12:24;;;;;;;;;15.75;12.75;;;;;;;;5099737;27;45493;-82
2021/09/17 02:14:49;;;;;;;;;11.00;10.75;;;;;;;;5090602;27;45494;-82
2021/09/17 02:17:16;;;;;;;;;12.00;10.00;;;;;;;;5095059;27;45490;-82
2021/09/17 02:19:41;;;;;;;;;8.75;7.75;;;;;;;;5096950;27;45419;-81
2021/09/17 02:22:07;;;;;;;;;10.50;9.00;;;;;;;;5099837;27;46198;-80
2021/09/17 02:24:32;;;;;;;;;10.67;8.00;;;;;;;;5098304;27;45907;-80
2021/09/17 02:26:57;;;;;;;;;10.33;8.67;;;;;;;;5095588;27;45485;-80
2021/09/17 02:29:22;;;;;;;;;13.33;10.33;;;;;;;;5091795;27;45480;-80
2021/09/17 02:31:48;;;;;;;;;9.67;9.67;;;;;;;;5097001;27;45892;-80
2021/09/17 02:34:13;;;;;;;;;12.25;11.00;;;;;;;;5098854;27;45548;-82
2021/09/17 02:36:38;;;;;;;;;12.00;12.00;;;;;;;;5089114;27;45547;-82
2021/09/17 02:39:04;;;;;;;;;12.67;11.67;;;;;;;;5095291;27;45487;-82
2021/09/17 02:41:29;;;;;;;;;12.00;11.00;;;;;;;;5095516;27;45630;-81
2021/09/17 02:43:54;;;;;;;;;11.00;10.25;;;;;;;;5095988;27;45492;-81
2021/09/17 02:46:20;;;;;;;;;14.50;11.50;;;;;;;;5096884;27;45491;-81
2021/09/17 02:48:45;;;;;;;;;14.00;13.67;;;;;;;;5089474;27;45778;-82
2021/09/17 02:51:13;;;;;;;;;13.25;13.00;;;;;;;;5099253;27;46077;-82
2021/09/17 02:53:38;;;;;;;;;20.00;15.25;;;;;;;;5107850;27;46451;-82
2021/09/17 02:56:03;;;;;;;;;14.50;13.25;;;;;;;;5095585;27;45495;-82
2021/09/17 02:58:29;;;;;;;;;18.75;14.75;;;;;;;;5098396;27;45372;-82
2021/09/17 03:00:54;;;;;;;;;18.67;13.00;;;;;;;;5101399;27;45805;-82
2021/09/17 03:03:20;;;;;;;;;18.50;14.25;;;;;;;;5088582;27;45479;-82
2021/09/17 03:05:45;;;;;;;;;15.75;14.50;;;;;;;;5095023;27;46461;-82
2021/09/17 03:08:11;;;;;;;;;15.00;14.50;;;;;;;;5092677;27;45557;-80
2021/09/17 03:10:37;;;;;;;;;15.25;15.25;;;;;;;;5097099;27;46267;-82
2021/09/17 03:13:02;;;;;;;;;15.00;13.67;;;;;;;;5104745;27;45414;-82
2021/09/17 03:15:27;;;;;;;;;19.00;16.33;;;;;;;;5095031;27;45575;-82
2021/09/17 03:17:52;;;;;;;;;16.00;14.00;;;;;;;;5097113;27;45509;-82
2021/09/17 03:20:18;;;;;;;;;15.50;12.50;;;;;;;;5095177;27;48675;-81
2021/09/17 03:22:43;;;;;;;;;19.67;15.67;;;;;;;;5092053;27;45505;-82
2021/09/17 03:25:08;;;;;;;;;18.50;18.00;;;;;;;;5092802;27;45558;-82
2021/09/17 03:27:34;;;;;;;;;17.50;16.00;;;;;;;;5094439;27;45630;-82
2021/09/17 03:29:59;;;;;;;;;18.75;16.75;;;;;;;;5096380;27;46220;-82
2021/09/17 03:32:24;;;;;;;;;17.50;14.50;;;;;;;;5096140;27;45734;-81
2021/09/17 03:34:50;;;;;;;;;21.00;19.50;;;;;;;;5092033;27;45883;-82
2021/09/17 03:37:15;;;;;;;;;23.00;19.25;;;;;;;;5097738;27;45686;-81
2021/09/17 03:39:40;;;;;;;;;24.33;17.33;;;;;;;;5098194;27;45503;-82
2021/09/17 03:42:06;;;;;;;;;19.00;18.00;;;;;;;;5095043;27;45524;-82
2021/09/17 03:44:31;;;;;;;;;18.50;18.50;;;;;;;;5094783;27;45715;-82
2021/09/17 03:46:56;;;;;;;;;26.00;21.67;;;;;;;;5090257;27;45401;-82
2021/09/17 03:49:22;;;;;;;;;23.75;18.00;;;;;;;;5094754;27;46531;-82
2021/09/17 03:51:47;;;;;;;;;24.25;19.50;;;;;;;;5092206;27;45338;-81
2021/09/17 03:54:12;;;;;;;;;22.50;18.00;;;;;;;;5097125;27;46837;-82
2021/09/17 03:56:38;;;;;;;;;21.33;17.33;;;;;;;;5093582;27;45666;-82
2021/09/17 03:59:03;;;;;;;;;14.50;14.25;;;;;;;;5092021;27;46071;-82
2021/09/17 04:01:28;;;;;;;;;25.00;18.25;;;;;;;;5092318;27;45317;-82
2021/09/17 04:03:53;;;;;;;;;22.00;19.00;;;;;;;;5094872;27;45549;-82
2021/09/17 04:06:19;;;;;;;;;21.00;16.33;;;;;;;;5101824;27;45426;-82
2021/09/17 04:08:44;;;;;;;;;24.67;20.33;;;;;;;;5097666;27;46034;-82
2021/09/17 04:11:09;;;;;;;;;22.33;20.67;;;;;;;;5099947;27;45598;-82
2021/09/17 04:13:34;;;;;;;;;25.00;18.67;;;;;;;;5097462;27;45477;-82
2021/09/17 04:16:00;;;;;;;;;19.67;16.67;;;;;;;;5094931;27;45548;-82
2021/09/17 04:18:25;;;;;;;;;17.67;14.67;;;;;;;;5095900;27;45569;-81
2021/09/17 04:20:50;;;;;;;;;20.67;14.67;;;;;;;;5089358;27;45517;-82
2021/09/17 04:23:15;;;;;;;;;20.33;17.67;;;;;;;;5092016;27;45529;-82
2021/09/17 04:25:41;;;;;;;;;16.00;14.75;;;;;;;;5094418;27;45291;-81
2021/09/17 04:28:07;;;;;;;;;19.25;18.00;;;;;;;;5101218;27;45434;-81
2021/09/17 04:30:33;;;;;;;;;20.50;16.00;;;;;;;;5097134;27;45471;-81
2021/09/17 04:32:59;;;;;;;;;21.25;20.00;;;;;;;;5097311;27;45440;-82
2021/09/17 04:35:25;;;;;;;;;22.25;15.25;;;;;;;;5093485;27;45566;-81
2021/09/17 04:37:56;;;;;;;;;24.75;16.75;;;;;;;;5092204;27;45684;-81
2021/09/17 04:40:22;;;;;;;;;20.00;15.00;;;;;;;;5089605;27;45538;-82
2021/09/17 04:42:47;;;;;;;;;21.50;19.25;;;;;;;;5101747;27;45613;-81
2021/09/17 04:45:12;;;;;;;;;18.00;16.00;;;;;;;;5107302;27;45908;-82
2021/09/17 04:47:38;;;;;;;;;18.50;15.50;;;;;;;;5098874;27;45894;-81
2021/09/17 04:50:04;;;;;;;;;19.00;17.50;;;;;;;;5094572;27;45405;-81
2021/09/17 04:52:29;;;;;;;;;21.75;19.50;;;;;;;;5100331;27;45476;-82
2021/09/17 04:54:58;;;;;;;;;22.00;20.00;;;;;;;;5098432;27;45617;-81
2021/09/17 04:57:23;;;;;;;;;19.75;17.75;;;;;;;;5093943;27;47648;-81
2021/09/17 04:59:49;;;;;;;;;25.67;21.33;;;;;;;;5096837;27;45276;-82
2021/09/17 05:02:14;;;;;;;;;26.33;20.00;;;;;;;;5092353;27;45524;-81
2021/09/17 05:04:39;;;;;;;;;23.00;21.67;;;;;;;;5089691;27;45417;-82
2021/09/17 05:07:04;;;;;;;;;27.25;21.50;;;;;;;;5106841;27;45893;-82
2021/09/17 05:09:32;;;;;;;;;21.33;21.33;;;;;;;;5099459;27;45847;-81
2021/09/17 05:11:57;;;;;;;;;21.00;19.25;;;;;;;;5087954;27;45810;-80
2021/09/17 05:14:23;;;;;;;;;18.25;18.00;;;;;;;;5093721;27;45411;-82
2021/09/17 05:16:48;;;;;;;;;21.67;21.67;;;;;;;;5093637;27;45816;-81
2021/09/17 05:19:13;;;;;;;;;22.00;20.25;;;;;;;;5098539;27;45601;-82
2021/09/17 05:21:39;;;;;;;;;20.33;18.00;;;;;;;;5097114;27;45495;-82
2021/09/17 05:24:04;;;;;;;;;18.25;18.25;;;;;;;;5091777;27;45566;-82
2021/09/17 05:26:29;;;;;;;;;24.75;19.25;;;;;;;;5091895;27;45608;-82
2021/09/17 05:28:55;;;;;;;;;23.25;21.00;;;;;;;;5086132;27;45648;-82
2021/09/17 05:31:20;;;;;;;;;21.25;20.00;;;;;;;;5099128;27;45421;-82
2021/09/17 05:33:45;;;;;;;;;21.00;20.00;;;;;;;;5094704;27;45768;-82
2021/09/17 05:36:11;;;;;;;;;22.00;21.75;;;;;;;;5084973;27;45991;-82
2021/09/17 05:38:36;;;;;;;;;18.25;18.25;;;;;;;;5080502;27;45694;-82
2021/09/17 05:41:01;;;;;;;;;20.67;18.00;;;;;;;;5083200;27;45493;-82
2021/09/17 05:43:26;;;;;;;;;22.75;20.50;;;;;;;;5100562;27;45409;-82
2021/09/17 05:45:52;;;;;;;;;23.00;20.33;;;;;;;;5094430;27;46215;-82
2021/09/17 05:48:17;;;;;;;;;27.33;23.33;;;;;;;;5095652;27;45780;-82
2021/09/17 05:50:42;;;;;;;;;25.00;24.00;;;;;;;;5096751;27;45533;-88
2021/09/17 05:53:07;;;;;;;;;21.00;20.33;;;;;;;;5093381;27;45500;-82
2021/09/17 05:55:33;;;;;;;;;26.00;21.00;;;;;;;;5088711;27;45445;-82
2021/09/17 05:57:58;;;;;;;;;26.75;22.00;;;;;;;;5106922;27;45503;-84
2021/09/17 06:00:24;;;;;;;;;23.75;21.00;;;;;;;;5099667;27;45688;-81
2021/09/17 06:02:49;;;;;;;;;22.75;20.25;;;;;;;;5096138;27;45395;-80
2021/09/17 06:05:14;;;;;;;;;24.00;21.33;;;;;;;;5084337;27;46304;-79
2021/09/17 06:07:43;;;;;;;;;23.33;20.33;;;;;;;;5095446;27;45513;-80
2021/09/17 06:10:09;;;;;;;;;19.50;18.00;;;;;;;;5101815;27;45508;-79
2021/09/17 06:12:34;;;;;;;;;24.75;20.25;;;;;;;;5087912;27;46493;-80
2021/09/17 06:14:59;;;;;;;;;23.00;21.00;;;;;;;;5094601;27;46089;-80
2021/09/17 06:17:24;;;;;;;;;20.67;18.00;;;;;;;;5094471;27;45377;-80
2021/09/17 06:19:50;;;;;;;;;23.33;19.33;;;;;;;;5071304;27;45531;-80
2021/09/17 06:22:15;;;;;;;;;22.33;20.33;;;;;;;;5092230;27;45609;-80
2021/09/17 06:24:40;;;;;;;;;22.33;20.67;;;;;;;;5095298;27;45566;-80
2021/09/17 06:27:05;;;;;;;;;19.75;16.25;;;;;;;;5091362;27;45803;-80
2021/09/17 06:29:31;;;;;;;;;20.00;19.33;;;;;;;;5089250;27;45570;-80
2021/09/17 06:31:56;;;;;;;;;20.00;19.00;;;;;;;;5082887;27;45529;-80
2021/09/17 06:34:21;;;;;;;;;19.25;15.50;;;;;;;;5092700;27;46687;-80
2021/09/17 06:36:47;;;;;;;;;18.00;18.00;;;;;;;;5096831;27;46006;-80
2021/09/17 06:39:12;;;;;;;;;19.33;15.33;;;;;;;;5092609;27;45707;-79
2021/09/17 06:41:37;;;;;;;;;19.25;16.00;;;;;;;;5107655;27;45468;-79
2021/09/17 06:44:02;;;;;;;;;19.00;17.00;;;;;;;;5086730;27;45919;-79
2021/09/17 06:46:28;;;;;;;;;19.50;16.25;;;;;;;;5095501;27;45484;-79
2021/09/17 06:48:53;;;;;;;;;19.00;16.67;;;;;;;;5090077;27;45526;-79
2021/09/17 06:51:18;;;;;;;;;17.67;15.33;;;;;;;;5096056;27;45323;-79
2021/09/17 06:53:43;;;;;;;;;16.33;14.33;;;;;;;;5103346;27;46441;-79
2021/09/17 06:56:09;;;;;;;;;15.33;14.67;;;;;;;;5091401;27;45533;-79
2021/09/17 06:58:36;;;;;;;;;15.75;13.50;;;;;;;;5099120;27;45348;-79
2021/09/17 07:01:02;;;;;;;;;16.00;14.00;;;;;;;;5096318;27;45615;-79
2021/09/17 07:03:27;;;;;;;;;16.75;15.50;;;;;;;;5097565;27;46010;-79
2021/09/17 07:05:53;;;;;;;;;16.33;12.67;;;;;;;;5094652;27;45477;-79
2021/09/17 07:08:19;;;;;;;;;14.75;10.75;;;;;;;;5090364;27;45627;-78
2021/09/17 07:10:45;;;;;;;;;11.50;10.75;;;;;;;;5092238;27;45657;-78
2021/09/17 07:13:11;;;;;;;;;14.25;10.75;;;;;;;;5096757;27;46035;-78
2021/09/17 07:15:36;;;;;;;;;11.50;9.00;;;;;;;;5091911;27;45487;-79
2021/09/17 07:18:02;;;;;;;;;14.00;12.00;;;;;;;;5097094;27;45459;-81
2021/09/17 07:20:28;;;;;;;;;13.50;12.25;;;;;;;;5089390;27;45446;-78
2021/09/17 07:22:53;;;;;;;;;13.25;9.00;;;;;;;;5091377;27;46027;-78
2021/09/17 07:25:19;;;;;;;;;12.75;10.75;;;;;;;;5097637;27;45545;-80
2021/09/17 07:27:44;;;;;;;;;13.00;11.75;;;;;;;;5094713;27;45361;-80
2021/09/17 07:30:10;;;;;;;;;13.00;11.00;;;;;;;;5093701;27;45463;-80
2021/09/17 07:32:35;;;;;;;;;10.00;9.25;;;;;;;;5091046;27;45481;-80
2021/09/17 07:35:01;;;;;;;;;11.75;10.75;;;;;;;;5081587;27;45541;-80
2021/09/17 07:37:26;;;;;;;;;8.75;8.75;;;;;;;;5085470;27;45385;-81
2021/09/17 07:39:51;;;;;;;;;7.33;7.33;;;;;;;;5092717;27;45572;-81
2021/09/17 07:42:17;;;;;;;;;6.75;6.75;;;;;;;;5095701;27;45937;-81
2021/09/17 07:44:42;;;;;;;;;8.75;8.00;;;;;;;;5092976;27;45612;-81
2021/09/17 07:47:08;;;;;;;;;8.75;6.25;;;;;;;;5091872;27;45566;-81
2021/09/17 07:49:33;;;;;;;;;5.00;5.00;;;;;;;;5093522;27;45560;-81
2021/09/17 07:51:59;;;;;;;;;7.75;7.75;;;;;;;;5096815;27;45604;-81
2021/09/17 07:54:24;;;;;;;;;7.25;6.00;;;;;;;;5094664;27;45423;-81
2021/09/17 07:56:50;;;;;;;;;6.00;6.00;;;;;;;;5086861;27;45604;-80
2021/09/17 07:59:16;;;;;;;;;4.75;4.50;;;;;;;;5094259;27;45499;-81
2021/09/17 08:01:42;;;;;;;;;4.00;4.00;;;;;;;;5084873;27;45579;-81
2021/09/17 08:04:07;;;;;;;;;5.33;5.33;;;;;;;;5095992;27;45501;-80
2021/09/17 08:06:32;;;;;;;;;6.25;5.50;;;;;;;;5094121;27;45426;-81
2021/09/17 08:08:58;;;;;;;;;5.00;5.00;;;;;;;;5093837;27;45603;-81
2021/09/17 08:11:23;;;;;;;;;6.00;6.00;;;;;;;;5095243;27;45358;-81
2021/09/17 08:13:48;;;;;;;;;6.00;6.00;;;;;;;;5088651;27;45486;-79
2021/09/17 08:16:13;;;;;;;;;6.33;5.00;;;;;;;;5091635;27;45672;-81
2021/09/17 08:18:39;;;;;;;;;5.00;4.00;;;;;;;;5093685;27;45478;-81
2021/09/17 08:21:04;;;;;;;;;4.00;4.00;;;;;;;;5094930;27;46263;-81
2021/09/17 08:23:29;;;;;;;;;6.00;5.50;;;;;;;;5093841;27;45563;-81
2021/09/17 08:25:55;;;;;;;;;7.50;5.25;;;;;;;;5090072;27;45727;-81
2021/09/17 08:28:21;;;;;;;;;4.75;4.75;;;;;;;;5085199;27;45427;-81
2021/09/17 08:30:46;;;;;;;;;4.00;4.00;;;;;;;;5085191;27;46363;-81
2021/09/17 08:33:12;;;;;;;;;5.00;3.50;;;;;;;;5087662;27;45593;-81
2021/09/17 08:35:37;;;;;;;;;6.00;4.00;;;;;;;;5089449;27;45356;-81
2021/09/17 08:38:03;;;;;;;;;4.67;4.67;;;;;;;;5091454;27;45419;-81
2021/09/17 08:40:28;;;;;;;;;3.75;3.75;;;;;;;;5094978;27;46387;-81
2021/09/17 08:42:55;;;;;;;;;5.00;4.25;;;;;;;;5095228;27;45580;-81
2021/09/17 08:45:21;;;;;;;;;7.00;4.75;;;;;;;;5093777;27;45697;-81
2021/09/17 08:47:48;;;;;;;;;5.25;4.25;;;;;;;;5094366;27;45505;-81
2021/09/17 08:50:14;;;;;;;;;4.00;4.00;;;;;;;;5098285;27;46561;-81
2021/09/17 08:52:39;;;;;;;;;6.00;4.00;;;;;;;;5095196;27;45442;-81
2021/09/17 08:55:05;;;;;;;;;4.50;4.50;;;;;;;;5112112;27;45466;-81
2021/09/17 08:57:30;;;;;;;;;5.25;4.75;;;;;;;;5095917;27;45566;-81
2021/09/17 08:59:55;;;;;;;;;4.75;4.00;;;;;;;;5095644;27;45466;-81
2021/09/17 09:02:25;;;;;;;;;4.00;2.00;;;;;;;;5097335;27;45539;-81
2021/09/17 09:05:05;;;;;;;;;5.75;4.00;;;;;;;;5087788;27;45456;-81
2021/09/17 09:07:31;;;;;;;;;6.00;3.00;;;;;;;;5095031;27;45759;-80
2021/09/17 09:10:07;;;;;;;;;3.50;2.75;;;;;;;;5091544;27;45550;-81
2021/09/17 09:12:32;;;;;;;;;5.00;5.00;;;;;;;;5082542;27;45749;-81
2021/09/17 09:15:30;;;;;;;;;4.00;3.00;;;;;;;;5081027;27;45685;-81
2021/09/17 09:18:00;;;;;;;;;7.00;5.50;;;;;;;;5048849;28;45598;-81
2021/09/17 09:20:26;;;;;;;;;4.00;4.00;;;;;;;;5047217;28;45889;-81
2021/09/17 09:23:03;;;;;;;;;4.00;4.00;;;;;;;;5029861;28;45424;-82
2021/09/17 09:25:28;;;;;;;;;5.00;4.00;;;;;;;;5039601;28;45845;-81
2021/09/17 09:27:54;;;;;;;;;3.25;3.25;;;;;;;;5046020;28;45604;-81
2021/09/17 09:30:28;;;;;;;;;6.75;5.00;;;;;;;;5022589;28;46351;-81
2021/09/17 09:32:54;;;;;;;;;6.50;5.00;;;;;;;;5047242;28;45511;-81
2021/09/17 09:35:19;;;;;;;;;7.50;4.25;;;;;;;;5048082;28;45765;-81
2021/09/17 09:37:44;;;;;;;;;3.50;3.50;;;;;;;;5046013;28;45482;-81
2021/09/17 09:40:17;;;;;;;;;5.00;5.00;;;;;;;;5052028;28;45681;-81
2021/09/17 09:42:44;;;;;;;;;6.50;5.00;;;;;;;;5050505;28;45865;-81
2021/09/17 09:45:16;;;;;;;;;5.00;3.50;;;;;;;;5048491;28;45867;-81
2021/09/17 09:47:42;;;;;;;;;4.25;4.25;;;;;;;;5029859;28;45295;-81
2021/09/17 09:50:16;;;;;;;;;5.50;5.00;;;;;;;;5044067;28;45830;-82
2021/09/17 09:52:41;;;;;;;;;5.50;5.00;;;;;;;;5052306;27;45508;-81
2021/09/17 09:55:07;;;;;;;;;5.00;5.00;;;;;;;;5084936;27;45542;-80
2021/09/17 09:57:33;;;;;;;;;5.50;4.75;;;;;;;;5094505;27;45446;-81
2021/09/17 10:00:00;;;;;;;;;5.25;5.25;;;;;;;;5093470;27;45490;-81
2021/09/17 10:02:25;;;;;;;;;4.25;4.00;;;;;;;;5090403;27;45766;-81
2021/09/17 10:04:52;;;;;;;;;5.25;5.25;;;;;;;;5104715;27;45996;-81
2021/09/17 10:07:17;;;;;;;;;4.75;4.75;;;;;;;;5089603;27;45539;-81
2021/09/17 10:09:43;;;;;;;;;5.00;5.00;;;;;;;;5095460;27;46618;-81
2021/09/17 10:12:12;;;;;;;;;4.75;3.50;;;;;;;;5098683;27;45530;-81
2021/09/17 10:14:43;;;;;;;;;5.75;5.75;;;;;;;;5097563;27;45712;-81
2021/09/17 10:17:10;;;;;;;;;5.00;5.00;;;;;;;;5085713;27;45815;-81
2021/09/17 10:19:36;;;;;;;;;5.50;4.00;;;;;;;;5093184;27;47365;-79
2021/09/17 10:22:03;;;;;;;;;4.50;4.50;;;;;;;;5101703;27;45685;-80
2021/09/17 10:24:32;;;;;;;;;6.00;6.00;;;;;;;;5098005;27;45568;-80
2021/09/17 10:26:58;;;;;;;;;5.00;5.00;;;;;;;;5095712;27;45632;-80
2021/09/17 10:29:50;;;;;;;;;5.50;5.50;;;;;;;;5096648;27;45566;-80
2021/09/17 10:32:27;;;;;;;;;7.00;5.75;;;;;;;;5086520;27;45660;-80
2021/09/17 10:35:09;;;;;;;;;6.50;6.50;;;;;;;;5085245;27;45661;-80
2021/09/17 10:37:47;;;;;;;;;7.25;7.00;;;;;;;;5103598;27;45442;-80
2021/09/17 10:40:12;;;;;;;;;5.50;5.00;;;;;;;;5115937;27;47309;-78
2021/09/17 10:42:37;;;;;;;;;4.00;4.00;;;;;;;;5097703;27;45889;-80
2021/09/17 10:45:06;;;;;;;;;7.67;6.00;;;;;;;;5098174;27;45743;-80
2021/09/17 10:47:40;;;;;;;;;7.50;6.50;;;;;;;;5097156;27;45383;-80
2021/09/17 10:50:13;;;;;;;;;9.75;8.00;;;;;;;;5089558;27;45586;-80
2021/09/17 10:52:42;;;;;;;;;9.00;7.50;;;;;;;;5081527;27;45361;-80
2021/09/17 10:55:08;;;;;;;;;6.25;5.75;;;;;;;;5097535;27;45651;-80
2021/09/17 10:57:54;;;;;;;;;4.00;4.00;;;;;;;;5097719;27;45501;-80
2021/09/17 11:00:38;;;;;;;;;10.00;9.25;;;;;;;;5044895;28;45527;-80
2021/09/17 11:03:03;;;;;;;;;7.75;6.75;;;;;;;;5046312;28;45574;-78
2021/09/17 11:05:28;;;;;;;;;6.00;6.00;;;;;;;;5045383;28;45636;-79
2021/09/17 11:07:53;;;;;;;;;8.00;6.00;;;;;;;;5046183;28;45747;-80
2021/09/17 11:10:24;;;;;;;;;5.50;4.00;;;;;;;;5048968;28;45720;-79
2021/09/17 11:12:49;;;;;;;;;5.00;5.00;;;;;;;;5049053;28;45627;-80
2021/09/17 11:15:16;;;;;;;;;8.00;5.25;;;;;;;;5049176;28;45634;-79
2021/09/17 11:17:58;;;;;;;;;6.00;4.00;;;;;;;;5049856;28;45507;-79
2021/09/17 11:20:24;;;;;;;;;5.00;5.00;;;;;;;;5048099;28;46090;-79
2021/09/17 11:23:03;;;;;;;;;4.50;4.50;;;;;;;;5049006;28;45397;-79
2021/09/17 11:25:32;;;;;;;;;5.50;5.00;;;;;;;;5048205;28;45637;-79
2021/09/17 11:27:58;;;;;;;;;5.00;3.75;;;;;;;;5032768;28;45524;-79
2021/09/17 11:30:24;;;;;;;;;6.00;3.25;;;;;;;;5048052;28;45900;-81
2021/09/17 11:32:50;;;;;;;;;3.25;3.25;;;;;;;;5049072;28;45997;-80
2021/09/17 11:35:15;;;;;;;;;4.50;3.75;;;;;;;;5049106;28;51193;-80
2021/09/17 11:37:48;;;;;;;;;3.50;3.50;;;;;;;;5071651;27;45524;-79
2021/09/17 11:40:13;;;;;;;;;2.50;2.50;;;;;;;;5094918;27;46883;-79
2021/09/17 11:42:38;;;;;;;;;5.00;3.00;;;;;;;;5097363;27;45467;-80
2021/09/17 11:45:19;;;;;;;;;2.75;2.25;;;;;;;;5094874;27;45477;-79
2021/09/17 11:47:49;;;;;;;;;3.00;3.00;;;;;;;;5096289;27;45852;-79
2021/09/17 11:50:15;;;;;;;;;4.25;3.25;;;;;;;;5085963;27;45716;-79
2021/09/17 11:52:43;;;;;;;;;3.25;3.25;;;;;;;;5092265;27;45518;-80
2021/09/17 11:55:10;;;;;;;;;4.75;3.00;;;;;;;;5088528;27;45563;-79
2021/09/17 11:57:39;;;;;;;;;3.00;3.00;;;;;;;;5083461;27;45904;-79
2021/09/17 12:00:10;;;;;;;;;3.25;2.50;;;;;;;;5092858;27;46181;-79
2021/09/17 12:02:36;;;;;;;;;5.50;3.75;;;;;;;;5092084;27;45763;-79
2021/09/17 12:05:03;;;;;;;;;3.00;3.00;;;;;;;;5082971;27;45685;-79
2021/09/17 12:07:30;;;;;;;;;6.00;4.50;;;;;;;;5094623;27;45473;-79
2021/09/17 12:09:55;;;;;;;;;3.00;3.00;;;;;;;;5095235;27;46213;-79
2021/09/17 12:12:30;;;;;;;;;3.00;3.00;;;;;;;;5096645;27;45443;-79
2021/09/17 12:14:56;;;;;;;;;7.00;5.00;;;;;;;;5091254;27;45525;-79
2021/09/17 12:17:22;;;;;;;;;5.00;4.00;;;;;;;;5092690;27;45611;-79
2021/09/17 12:19:56;;;;;;;;;4.00;3.00;;;;;;;;5082141;27;45736;-79
2021/09/17 12:22:29;;;;;;;;;4.00;4.00;;;;;;;;5094568;27;45620;-79
2021/09/17 12:25:13;;;;;;;;;3.25;3.25;;;;;;;;5095069;27;45581;-79
2021/09/17 12:27:45;;;;;;;;;4.25;3.00;;;;;;;;5098295;27;45381;-79
2021/09/17 12:30:21;;;;;;;;;3.50;3.50;;;;;;;;5085869;27;47977;-78
2021/09/17 12:33:06;;;;;;;;;2.50;2.50;;;;;;;;5099350;27;45463;-79
2021/09/17 12:35:49;;;;;;;;;3.50;3.50;;;;;;;;5091280;27;45610;-78
2021/09/17 12:38:15;;;;;;;;;3.75;3.75;;;;;;;;5112416;27;45497;-80
2021/09/17 12:40:42;;;;;;;;;4.25;4.25;;;;;;;;5095690;27;46088;-79
2021/09/17 12:43:09;;;;;;;;;5.00;5.00;;;;;;;;5095837;27;45785;-80
2021/09/17 12:45:35;;;;;;;;;4.25;4.00;;;;;;;;5096697;27;45583;-79
2021/09/17 12:48:02;;;;;;;;;5.50;5.50;;;;;;;;5094736;27;45496;-79
2021/09/17 12:50:28;;;;;;;;;4.75;4.75;;;;;;;;5097585;27;47404;-79
2021/09/17 12:52:53;;;;;;;;;4.33;3.00;;;;;;;;5097787;27;45464;-80
2021/09/17 12:55:19;;;;;;;;;5.00;3.75;;;;;;;;5098936;27;45534;-79
2021/09/17 12:57:55;;;;;;;;;7.25;4.50;;;;;;;;5096815;27;45484;-79
2021/09/17 13:00:20;;;;;;;;;3.75;3.75;;;;;;;;5095447;27;45626;-79
2021/09/17 13:02:46;;;;;;;;;5.25;4.25;;;;;;;;5096130;27;45759;-79
2021/09/17 13:05:11;;;;;;;;;4.67;4.67;;;;;;;;5112691;27;45749;-78
2021/09/17 13:07:37;;;;;;;;;5.50;4.25;;;;;;;;5094652;27;46002;-78
2021/09/17 13:10:02;;;;;;;;;4.50;3.25;;;;;;;;5095528;27;45519;-78
2021/09/17 13:12:28;;;;;;;;;5.75;5.50;;;;;;;;5089364;27;45467;-78
2021/09/17 13:14:53;;;;;;;;;5.00;5.00;;;;;;;;5094907;27;45512;-78
2021/09/17 13:17:19;;;;;;;;;3.75;3.75;;;;;;;;5094901;27;45405;-78
2021/09/17 13:19:44;;;;;;;;;6.00;4.50;;;;;;;;5094022;27;46107;-77
2021/09/17 13:22:09;;;;;;;;;3.25;3.00;;;;;;;;5098721;27;45415;-78
2021/09/17 13:24:35;;;;;;;;;5.00;5.00;;;;;;;;5094863;27;45905;-78
2021/09/17 13:27:00;;;;;;;;;3.75;3.75;;;;;;;;5097535;27;45501;-78
2021/09/17 13:29:25;;;;;;;;;3.25;3.25;;;;;;;;5096815;27;45723;-79
2021/09/17 13:31:50;;;;;;;;;4.67;4.67;;;;;;;;5091822;27;45597;-79
2021/09/17 13:34:16;;;;;;;;;5.50;4.50;;;;;;;;5087527;27;46050;-79
2021/09/17 13:36:41;;;;;;;;;4.00;4.00;;;;;;;;5094989;27;45542;-79
2021/09/17 13:39:06;;;;;;;;;4.00;4.00;;;;;;;;5093673;27;45638;-79
2021/09/17 13:41:32;;;;;;;;;3.25;3.25;;;;;;;;5105471;27;45358;-79
2021/09/17 13:43:57;;;;;;;;;4.50;4.50;;;;;;;;5091644;27;45326;-79
2021/09/17 13:46:23;;;;;;;;;4.75;4.00;;;;;;;;5092905;27;45888;-79
2021/09/17 13:48:48;;;;;;;;;4.00;2.25;;;;;;;;5094251;27;45750;-80
2021/09/17 13:51:13;;;;;;;;;4.67;3.00;;;;;;;;5090624;27;45540;-80
2021/09/17 13:53:38;;;;;;;;;3.00;3.00;;;;;;;;5094255;27;45711;-80
2021/09/17 13:56:04;;;;;;;;;3.00;3.00;;;;;;;;5091419;27;46539;-80
2021/09/17 13:58:29;;;;;;;;;2.75;2.75;;;;;;;;5082072;27;46003;-79
2021/09/17 14:00:55;;;;;;;;;4.50;3.00;;;;;;;;5088807;27;45568;-79
2021/09/17 14:03:21;;;;;;;;;4.00;4.00;;;;;;;;5092687;27;46781;-80
2021/09/17 14:05:46;;;;;;;;;5.50;3.75;;;;;;;;5084148;27;45565;-79
2021/09/17 14:08:11;;;;;;;;;5.67;4.00;;;;;;;;5092133;27;46063;-79
2021/09/17 14:10:36;;;;;;;;;3.00;3.00;;;;;;;;5090877;27;45834;-79
2021/09/17 14:13:02;;;;;;;;;4.00;4.00;;;;;;;;5092594;27;46324;-80
2021/09/17 14:15:27;;;;;;;;;4.00;4.00;;;;;;;;5092107;27;45669;-80
2021/09/17 14:17:52;;;;;;;;;3.00;3.00;;;;;;;;5088152;27;46601;-79
2021/09/17 14:20:17;;;;;;;;;4.00;4.00;;;;;;;;5090124;27;45521;-79
2021/09/17 14:22:43;;;;;;;;;3.00;3.00;;;;;;;;5094474;27;45619;-80
2021/09/17 14:25:09;;;;;;;;;3.00;3.00;;;;;;;;5094474;27;45464;-80
2021/09/17 14:27:35;;;;;;;;;4.00;4.00;;;;;;;;5097551;27;46027;-79
2021/09/17 14:30:00;;;;;;;;;5.50;5.00;;;;;;;;5099428;27;45651;-79